createdAt,value
2022-07-27T00:03:17.706Z,18.60
2022-07-27T00:08:20.747Z,18.60
2022-07-27T00:13:23.364Z,18.60
2022-07-27T00:18:25.962Z,18.50
2022-07-27T00:23:28.412Z,18.40
2022-07-27T00:28:30.825Z,18.30
2022-07-27T00:33:33.244Z,18.30
2022-07-27T00:38:35.686Z,18.10
2022-07-27T00:43:52.239Z,18.10
2022-07-27T00:48:54.728Z,18.00
2022-07-27T00:53:57.384Z,17.90
2022-07-27T00:58:59.900Z,18.10
2022-07-27T01:04:02.636Z,18.10
2022-07-27T01:09:25.291Z,18.20
2022-07-27T01:14:30.108Z,18.20
2022-07-27T01:19:33.218Z,18.30
2022-07-27T01:24:36.114Z,18.20
2022-07-27T01:29:38.675Z,18.30
2022-07-27T01:34:41.268Z,18.30
2022-07-27T01:39:43.701Z,18.30
2022-07-27T01:44:46.154Z,18.30
2022-07-27T01:49:48.561Z,18.30
2022-07-27T01:54:51.056Z,18.20
2022-07-27T01:59:54.095Z,18.20
2022-07-27T02:04:56.555Z,18.10
2022-07-27T02:09:59.266Z,18.10
2022-07-27T02:15:15.034Z,17.90
2022-07-27T02:20:22.383Z,18.10
2022-07-27T02:25:24.814Z,18.20
2022-07-27T02:30:27.432Z,18.20
2022-07-27T02:35:30.090Z,18.30
2022-07-27T02:40:32.579Z,18.20
2022-07-27T02:45:34.989Z,18.20
2022-07-27T02:50:37.412Z,18.10
2022-07-27T02:55:40.150Z,18.10
2022-07-27T03:00:42.601Z,18.20
2022-07-27T03:05:45.153Z,18.20
2022-07-27T03:10:48.609Z,18.00
2022-07-27T03:15:51.470Z,18.10
2022-07-27T03:20:54.013Z,18.10
2022-07-27T03:25:56.935Z,18.20
2022-07-27T03:30:59.743Z,18.20
2022-07-27T03:36:02.813Z,18.10
2022-07-27T03:41:06.793Z,18.10
2022-07-27T03:46:09.330Z,18.10
2022-07-27T03:51:11.793Z,18.10
2022-07-27T03:56:14.260Z,18.00
2022-07-27T04:01:16.735Z,17.90
2022-07-27T04:06:19.212Z,17.90
2022-07-27T04:11:21.810Z,18.00
2022-07-27T04:16:26.141Z,18.10
2022-07-27T04:21:28.570Z,18.10
2022-07-27T04:26:36.977Z,18.00
2022-07-27T04:31:39.418Z,18.00
2022-07-27T04:36:41.836Z,18.10
2022-07-27T04:41:44.349Z,18.00
2022-07-27T04:46:47.209Z,18.20
2022-07-27T04:51:49.697Z,18.40
2022-07-27T04:56:52.157Z,18.60
2022-07-27T05:01:54.698Z,18.70
2022-07-27T05:06:57.239Z,18.90
2022-07-27T05:11:59.679Z,18.90
2022-07-27T05:17:02.557Z,18.90
2022-07-27T05:22:08.160Z,18.90
2022-07-27T05:27:10.635Z,18.80
2022-07-27T05:32:15.524Z,18.80
2022-07-27T05:37:18.015Z,19.00
2022-07-27T05:42:20.481Z,19.10
2022-07-27T05:47:22.975Z,19.20
2022-07-27T05:52:25.401Z,19.20
2022-07-27T05:57:27.829Z,19.10
2022-07-27T06:02:31.639Z,19.20
2022-07-27T06:07:52.677Z,19.30
2022-07-27T06:12:55.660Z,19.40
2022-07-27T06:17:58.203Z,19.20
2022-07-27T06:23:03.347Z,19.10
2022-07-27T06:28:10.544Z,19.10
2022-07-27T06:33:14.030Z,19.10
2022-07-27T06:38:19.193Z,19.40
2022-07-27T06:43:27.464Z,19.50
2022-07-27T06:48:30.168Z,19.60
2022-07-27T06:53:36.459Z,19.30
2022-07-27T06:58:39.944Z,19.40
2022-07-27T07:03:42.399Z,19.60
2022-07-27T07:08:44.901Z,19.80
2022-07-27T07:13:47.564Z,20.00
2022-07-27T07:18:52.492Z,20.10
2022-07-27T07:23:55.185Z,19.80
2022-07-27T07:28:57.584Z,19.70
2022-07-27T07:34:00.171Z,19.80
2022-07-27T07:39:02.632Z,19.90
2022-07-27T07:44:06.845Z,20.20
2022-07-27T07:49:11.080Z,20.00
2022-07-27T07:54:13.989Z,19.40
2022-07-27T07:59:16.426Z,19.20
2022-07-27T08:04:19.034Z,19.10
2022-07-27T08:09:21.885Z,19.10
2022-07-27T08:14:26.939Z,19.20
2022-07-27T08:19:29.396Z,19.30
2022-07-27T08:24:31.862Z,19.50
2022-07-27T08:29:36.775Z,19.90
2022-07-27T08:34:39.950Z,20.20
2022-07-27T08:40:37.116Z,20.30
2022-07-27T08:45:05.506Z,20.50
2022-07-27T08:50:24.567Z,20.50
2022-07-27T08:55:30.472Z,20.40
2022-07-27T09:00:34.668Z,20.40
2022-07-27T09:05:46.070Z,20.20
2022-07-27T09:10:49.060Z,20.20
2022-07-27T09:21:22.925Z,20.10
2022-07-27T09:26:33.985Z,20.20
2022-07-27T09:31:55.287Z,20.20
2022-07-27T09:36:59.475Z,20.40
2022-07-27T09:42:03.348Z,20.40
2022-07-27T09:47:27.319Z,20.20
2022-07-27T09:52:31.047Z,20.70
2022-07-27T09:57:55.965Z,20.70
2022-07-27T10:02:59.337Z,20.70
2022-07-27T10:08:01.728Z,21.00
2022-07-27T10:13:05.626Z,21.30
2022-07-27T10:18:16.542Z,21.30
2022-07-27T10:23:30.121Z,21.80
2022-07-27T10:28:32.561Z,21.80
2022-07-27T10:33:46.807Z,21.80
2022-07-27T10:38:58.635Z,22.10
2022-07-27T10:44:18.896Z,22.40
2022-07-27T10:49:23.996Z,22.50
2022-07-27T10:54:29.442Z,22.80
2022-07-27T11:00:06.298Z,23.40
2022-07-27T11:05:05.103Z,23.70
2022-07-27T11:10:07.933Z,23.10
2022-07-27T11:15:10.555Z,23.40
2022-07-27T11:20:13.304Z,23.80
2022-07-27T11:25:16.490Z,24.00
2022-07-27T11:30:27.246Z,25.00
2022-07-27T11:35:29.880Z,25.80
2022-07-27T11:46:24.832Z,25.30
2022-07-27T11:51:28.357Z,25.90
2022-07-27T11:56:32.869Z,26.10
2022-07-27T12:01:39.236Z,26.60
2022-07-27T12:06:46.029Z,26.60
2022-07-27T12:11:57.783Z,26.10
2022-07-27T12:17:17.328Z,26.70
2022-07-27T12:22:30.775Z,27.80
2022-07-27T12:27:34.425Z,27.60
2022-07-27T12:32:46.219Z,28.80
2022-07-27T12:37:55.524Z,29.00
2022-07-27T12:43:02.550Z,29.40
2022-07-27T12:48:21.799Z,29.00
2022-07-27T12:53:24.322Z,29.50
2022-07-27T12:58:27.062Z,27.80
2022-07-27T13:03:29.511Z,29.50
2022-07-27T13:08:31.889Z,30.70
2022-07-27T13:13:34.710Z,29.30
2022-07-27T13:18:37.326Z,28.30
2022-07-27T13:23:40.371Z,29.30
2022-07-27T13:28:42.837Z,30.40
2022-07-27T13:33:45.406Z,32.30
2022-07-27T13:38:48.007Z,31.60
2022-07-27T13:43:50.398Z,32.30
2022-07-27T13:48:52.883Z,33.10
2022-07-27T13:53:55.484Z,33.30
2022-07-27T13:58:58.578Z,34.10
2022-07-27T14:04:05.240Z,34.20
2022-07-27T14:09:07.838Z,34.10
2022-07-27T14:14:14.990Z,34.70
2022-07-27T14:19:19.751Z,33.70
2022-07-27T14:24:23.369Z,32.80
2022-07-27T14:29:25.823Z,33.70
2022-07-27T14:34:28.425Z,33.60
2022-07-27T14:39:30.846Z,34.50
2022-07-27T14:44:35.091Z,35.10
2022-07-27T14:49:37.569Z,35.10
2022-07-27T14:54:41.370Z,35.90
2022-07-27T14:59:44.039Z,36.30
2022-07-27T15:04:46.595Z,36.80
2022-07-27T15:09:48.998Z,36.70
2022-07-27T15:14:52.284Z,35.30
2022-07-27T15:19:54.693Z,36.00
2022-07-27T15:24:57.719Z,35.40
2022-07-27T15:30:00.184Z,35.80
2022-07-27T15:35:03.354Z,36.00
2022-07-27T15:40:24.894Z,36.30
2022-07-27T15:45:27.411Z,36.60
2022-07-27T15:50:29.832Z,37.00
2022-07-27T15:55:34.020Z,34.00
2022-07-27T16:00:41.273Z,34.70
2022-07-27T16:05:47.509Z,34.70
2022-07-27T16:10:50.016Z,34.80
2022-07-27T16:16:11.576Z,34.80
2022-07-27T16:21:14.270Z,34.90
2022-07-27T16:26:17.250Z,34.10
2022-07-27T16:31:20.518Z,34.50
2022-07-27T16:36:23.105Z,35.40
2022-07-27T16:41:25.609Z,35.50
2022-07-27T16:46:28.092Z,35.10
2022-07-27T16:51:30.960Z,34.00
2022-07-27T16:56:33.432Z,33.80
2022-07-27T17:01:35.991Z,34.00
2022-07-27T17:06:38.702Z,33.30
2022-07-27T17:11:41.347Z,33.10
2022-07-27T17:16:50.298Z,33.60
2022-07-27T17:21:54.806Z,33.70
2022-07-27T17:26:57.234Z,33.90
2022-07-27T17:31:59.677Z,31.50
2022-07-27T17:37:02.138Z,28.60
2022-07-27T17:42:04.601Z,26.70
2022-07-27T17:47:07.156Z,25.90
2022-07-27T17:52:09.756Z,25.50
2022-07-27T17:57:12.167Z,24.90
2022-07-27T18:02:16.583Z,24.70
2022-07-27T18:07:19.411Z,24.50
2022-07-27T18:12:21.927Z,24.20
2022-07-27T18:17:24.552Z,23.90
2022-07-27T18:22:27.119Z,23.60
2022-07-27T18:27:32.779Z,23.40
2022-07-27T18:32:35.966Z,23.10
2022-07-27T18:37:38.448Z,22.90
2022-07-27T18:42:41.114Z,22.70
2022-07-27T18:47:49.480Z,22.50
2022-07-27T18:52:52.477Z,22.30
2022-07-27T18:57:58.184Z,22.00
2022-07-27T19:03:00.741Z,21.90
2022-07-27T19:08:03.772Z,21.70
2022-07-27T19:13:06.246Z,21.70
2022-07-27T19:18:08.742Z,21.30
2022-07-27T19:23:12.345Z,20.90
2022-07-27T19:28:16.279Z,20.50
2022-07-27T19:33:20.395Z,20.10
2022-07-27T19:38:22.798Z,19.80
2022-07-27T19:43:25.339Z,19.70
2022-07-27T19:48:28.647Z,19.40
2022-07-27T19:53:31.225Z,19.10
2022-07-27T19:58:34.057Z,19.10
2022-07-27T20:03:52.206Z,18.90
2022-07-27T20:08:59.652Z,18.90
2022-07-27T20:14:03.137Z,18.60
2022-07-27T20:19:05.571Z,18.60
2022-07-27T20:24:08.209Z,18.40
2022-07-27T20:29:12.115Z,18.10
2022-07-27T20:34:14.770Z,17.80
2022-07-27T20:39:17.920Z,18.00
2022-07-27T20:44:21.126Z,17.60
2022-07-27T20:49:24.937Z,17.50
2022-07-27T20:54:29.112Z,17.20
2022-07-27T20:59:33.263Z,17.00
2022-07-27T21:04:35.947Z,16.90
2022-07-27T21:09:38.441Z,16.90
2022-07-27T21:14:43.450Z,17.00
2022-07-27T21:19:45.896Z,17.10
2022-07-27T21:24:49.710Z,16.70
2022-07-27T21:29:52.511Z,16.30
2022-07-27T21:34:54.885Z,16.40
2022-07-27T21:39:57.300Z,16.50
2022-07-27T21:45:00.400Z,16.10
2022-07-27T21:50:03.157Z,16.10
2022-07-27T21:55:06.724Z,15.90
2022-07-27T22:00:10.166Z,15.90
2022-07-27T22:05:12.599Z,15.90
2022-07-27T22:10:15.144Z,15.70
2022-07-27T22:15:17.726Z,15.60
2022-07-27T22:20:21.119Z,15.60
2022-07-27T22:25:23.575Z,15.40
2022-07-27T22:30:26.192Z,15.20
2022-07-27T22:35:28.747Z,15.20
2022-07-27T22:40:31.159Z,15.20
2022-07-27T22:45:33.630Z,15.10
2022-07-27T22:50:36.213Z,14.90
2022-07-27T22:55:38.997Z,15.00
2022-07-27T23:00:41.462Z,15.00
2022-07-27T23:05:43.972Z,15.00
2022-07-27T23:10:46.459Z,15.20
2022-07-27T23:15:50.333Z,15.00
2022-07-27T23:20:53.654Z,15.00
2022-07-27T23:25:56.073Z,15.10
2022-07-27T23:30:59.468Z,14.80
2022-07-27T23:36:06.696Z,15.00
2022-07-27T23:41:09.088Z,15.00
2022-07-27T23:46:11.643Z,14.80
2022-07-27T23:51:18.994Z,14.70
2022-07-27T23:56:21.474Z,14.70
